createdAt,value
2019-04-26T00:00:10.172Z,15.40
2019-04-26T00:02:40.902Z,15.20
2019-04-26T00:05:10.259Z,15.20
2019-04-26T00:07:39.326Z,15.10
2019-04-26T00:10:10.479Z,15.00
2019-04-26T00:12:41.733Z,15.00
2019-04-26T00:15:15.111Z,14.90
2019-04-26T00:17:45.890Z,14.80
2019-04-26T00:20:14.899Z,14.80
2019-04-26T00:22:44.005Z,14.90
2019-04-26T00:25:12.601Z,14.90
2019-04-26T00:27:41.159Z,15.00
2019-04-26T00:30:10.528Z,14.90
2019-04-26T00:32:40.388Z,14.70
2019-04-26T00:35:09.018Z,14.70
2019-04-26T00:37:37.562Z,14.70
2019-04-26T00:40:06.387Z,14.60
2019-04-26T00:42:36.983Z,14.50
2019-04-26T00:45:06.399Z,14.40
2019-04-26T00:47:35.429Z,14.30
2019-04-26T00:50:05.819Z,14.30
2019-04-26T00:52:34.775Z,14.30
2019-04-26T00:55:03.803Z,14.00
2019-04-26T00:57:33.490Z,13.80
2019-04-26T01:00:03.835Z,13.70
2019-04-26T01:02:34.121Z,13.80
2019-04-26T01:05:02.647Z,13.80
2019-04-26T01:07:32.190Z,14.10
2019-04-26T01:10:00.883Z,14.10
2019-04-26T01:12:29.439Z,14.20
2019-04-26T01:14:58.013Z,14.20
2019-04-26T01:17:26.844Z,14.40
2019-04-26T01:19:55.950Z,14.40
2019-04-26T01:22:27.682Z,14.30
2019-04-26T01:24:57.041Z,14.30
2019-04-26T01:27:28.601Z,14.30
2019-04-26T01:30:00.281Z,14.20
2019-04-26T01:32:30.012Z,14.20
2019-04-26T01:34:59.405Z,14.20
2019-04-26T01:37:29.092Z,14.10
2019-04-26T01:39:58.768Z,14.20
2019-04-26T01:42:28.439Z,14.00
2019-04-26T01:44:58.069Z,14.10
2019-04-26T01:47:28.436Z,14.20
2019-04-26T01:49:58.212Z,14.00
2019-04-26T01:52:27.937Z,14.10
2019-04-26T01:54:57.672Z,14.00
2019-04-26T01:57:27.367Z,13.80
2019-04-26T01:59:57.865Z,13.80
2019-04-26T02:02:28.408Z,13.70
2019-04-26T02:04:58.127Z,13.70
2019-04-26T02:07:28.327Z,13.70
2019-04-26T02:09:58.208Z,13.80
2019-04-26T02:12:28.777Z,13.90
2019-04-26T02:14:58.533Z,13.80
2019-04-26T02:17:29.305Z,13.80
2019-04-26T02:20:02.044Z,13.70
2019-04-26T02:22:32.059Z,13.70
2019-04-26T02:25:01.860Z,13.80
2019-04-26T02:27:50.551Z,13.80
2019-04-26T02:30:20.361Z,13.80
2019-04-26T02:32:50.052Z,13.80
2019-04-26T02:35:19.748Z,13.70
2019-04-26T02:37:49.466Z,13.50
2019-04-26T02:40:19.163Z,13.40
2019-04-26T02:42:48.900Z,13.30
2019-04-26T02:45:18.638Z,13.30
2019-04-26T02:47:48.333Z,13.30
2019-04-26T02:50:18.015Z,13.30
2019-04-26T02:52:47.784Z,13.20
2019-04-26T02:55:17.487Z,13.20
2019-04-26T02:57:47.240Z,13.20
2019-04-26T03:00:16.937Z,13.20
2019-04-26T03:02:47.386Z,13.40
2019-04-26T03:05:17.072Z,13.40
2019-04-26T03:07:52.102Z,13.50
2019-04-26T03:10:21.793Z,13.40
2019-04-26T03:12:51.487Z,13.60
2019-04-26T03:15:21.225Z,13.60
2019-04-26T03:17:50.949Z,13.50
2019-04-26T03:20:20.637Z,13.50
2019-04-26T03:22:50.352Z,13.50
2019-04-26T03:25:20.123Z,13.50
2019-04-26T03:27:49.730Z,13.40
2019-04-26T03:30:22.769Z,13.50
2019-04-26T03:32:53.826Z,13.40
2019-04-26T03:35:22.126Z,13.30
2019-04-26T03:37:51.884Z,13.30
2019-04-26T03:40:21.574Z,13.30
2019-04-26T03:42:51.268Z,13.40
2019-04-26T03:45:20.998Z,13.50
2019-04-26T03:47:50.675Z,13.50
2019-04-26T03:50:20.292Z,13.50
2019-04-26T03:52:50.012Z,13.40
2019-04-26T03:55:20.183Z,13.30
2019-04-26T03:57:49.851Z,13.30
2019-04-26T04:00:19.555Z,13.20
2019-04-26T04:02:49.257Z,13.30
2019-04-26T04:05:20.195Z,13.50
2019-04-26T04:07:51.567Z,13.40
2019-04-26T04:10:21.422Z,13.30
2019-04-26T04:12:51.134Z,13.30
2019-04-26T04:15:20.871Z,13.30
2019-04-26T04:17:50.571Z,13.30
2019-04-26T04:20:20.261Z,13.60
2019-04-26T04:22:49.984Z,13.60
2019-04-26T04:25:19.665Z,13.60
2019-04-26T04:27:49.471Z,13.60
2019-04-26T04:30:19.189Z,13.70
2019-04-26T04:32:49.879Z,13.60
2019-04-26T04:35:19.592Z,13.60
2019-04-26T04:38:05.530Z,13.70
2019-04-26T04:40:44.824Z,13.70
2019-04-26T04:43:34.482Z,13.60
2019-04-26T04:46:04.288Z,13.70
2019-04-26T04:48:34.020Z,13.80
2019-04-26T04:51:03.966Z,13.80
2019-04-26T04:53:33.730Z,13.90
2019-04-26T04:56:03.338Z,14.10
2019-04-26T04:58:33.094Z,14.20
2019-04-26T05:01:02.786Z,14.30
2019-04-26T05:03:32.531Z,14.80
2019-04-26T05:06:07.693Z,15.60
2019-04-26T05:08:33.582Z,16.10
2019-04-26T05:11:03.286Z,16.20
2019-04-26T05:13:33.035Z,16.30
2019-04-26T05:16:02.731Z,16.80
2019-04-26T05:18:32.418Z,16.90
2019-04-26T05:21:02.174Z,17.80
2019-04-26T05:23:32.027Z,17.70
2019-04-26T05:26:01.710Z,17.70
2019-04-26T05:28:31.446Z,17.30
2019-04-26T05:31:27.522Z,17.70
2019-04-26T05:34:00.181Z,18.10
2019-04-26T05:36:31.852Z,18.00
2019-04-26T05:39:02.172Z,18.20
2019-04-26T05:41:31.807Z,18.40
2019-04-26T05:44:01.557Z,18.70
2019-04-26T05:46:31.434Z,18.60
2019-04-26T05:49:02.136Z,19.10
2019-04-26T05:51:31.851Z,19.20
2019-04-26T05:54:01.539Z,19.10
2019-04-26T05:56:31.220Z,18.90
2019-04-26T05:59:01.599Z,19.10
2019-04-26T06:01:32.610Z,19.60
2019-04-26T06:04:02.622Z,19.40
2019-04-26T06:06:32.385Z,18.80
2019-04-26T06:09:02.116Z,19.90
2019-04-26T06:11:32.334Z,19.60
2019-04-26T06:14:02.062Z,20.00
2019-04-26T06:16:31.835Z,19.60
2019-04-26T06:19:01.733Z,19.00
2019-04-26T06:21:31.581Z,18.90
2019-04-26T06:24:02.081Z,19.30
2019-04-26T06:26:45.031Z,19.90
2019-04-26T06:29:16.019Z,19.70
2019-04-26T06:31:45.688Z,20.10
2019-04-26T06:34:15.800Z,19.50
2019-04-26T06:36:45.420Z,19.20
2019-04-26T06:39:15.156Z,20.00
2019-04-26T06:41:44.846Z,20.10
2019-04-26T06:44:14.575Z,20.00
2019-04-26T06:46:44.305Z,20.00
2019-04-26T06:49:13.993Z,20.10
2019-04-26T06:51:43.684Z,19.40
2019-04-26T06:54:13.446Z,19.50
2019-04-26T06:56:43.280Z,19.70
2019-04-26T06:59:12.978Z,19.80
2019-04-26T07:01:42.783Z,19.70
2019-04-26T07:04:12.720Z,20.20
2019-04-26T07:06:42.527Z,20.30
2019-04-26T07:09:12.271Z,20.10
2019-04-26T07:11:55.677Z,20.00
2019-04-26T07:14:25.391Z,20.40
2019-04-26T07:16:55.199Z,20.50
2019-04-26T07:19:24.816Z,20.20
2019-04-26T07:22:02.304Z,20.40
2019-04-26T07:24:31.994Z,20.80
2019-04-26T07:27:03.004Z,20.30
2019-04-26T07:29:32.880Z,19.40
2019-04-26T07:32:03.271Z,19.80
2019-04-26T07:34:34.919Z,20.20
2019-04-26T07:37:04.664Z,19.90
2019-04-26T07:39:34.480Z,20.10
2019-04-26T07:42:05.199Z,19.90
2019-04-26T07:45:01.957Z,19.50
2019-04-26T07:48:19.241Z,19.60
2019-04-26T07:51:11.535Z,20.20
2019-04-26T07:53:46.100Z,20.70
2019-04-26T07:56:22.981Z,19.90
2019-04-26T07:59:29.970Z,19.90
2019-04-26T08:02:22.544Z,19.60
2019-04-26T08:05:09.570Z,19.80
2019-04-26T08:07:43.879Z,19.60
2019-04-26T08:10:18.234Z,20.10
2019-04-26T08:12:49.979Z,19.60
2019-04-26T08:15:29.166Z,19.80
2019-04-26T08:18:02.551Z,20.70
2019-04-26T08:20:35.415Z,20.80
2019-04-26T08:23:16.051Z,20.90
2019-04-26T08:25:40.552Z,21.50
2019-04-26T08:28:12.038Z,21.60
2019-04-26T08:30:46.523Z,21.00
2019-04-26T08:33:18.304Z,21.10
2019-04-26T08:35:53.081Z,21.40
2019-04-26T08:38:22.837Z,21.60
2019-04-26T08:40:52.385Z,21.80
2019-04-26T08:43:32.933Z,22.10
2019-04-26T08:46:10.081Z,22.70
2019-04-26T08:48:40.267Z,22.60
2019-04-26T08:51:11.026Z,22.10
2019-04-26T08:53:42.206Z,22.10
2019-04-26T08:56:15.204Z,22.20
2019-04-26T08:58:48.273Z,22.60
2019-04-26T09:01:21.574Z,21.80
2019-04-26T09:03:58.159Z,21.50
2019-04-26T09:06:30.513Z,21.40
2019-04-26T09:09:01.916Z,21.50
2019-04-26T09:11:33.907Z,21.60
2019-04-26T09:14:04.914Z,21.90
2019-04-26T09:16:33.568Z,21.30
2019-04-26T09:19:02.190Z,22.00
2019-04-26T09:21:34.983Z,22.00
2019-04-26T09:24:08.429Z,21.50
2019-04-26T09:26:42.499Z,21.50
2019-04-26T09:29:30.652Z,21.50
2019-04-26T09:32:07.520Z,20.90
2019-04-26T09:34:41.333Z,21.50
2019-04-26T09:37:10.451Z,21.40
2019-04-26T09:39:41.570Z,21.60
2019-04-26T09:42:13.849Z,21.60
2019-04-26T09:44:44.124Z,21.60
2019-04-26T09:47:29.542Z,21.30
2019-04-26T09:49:59.944Z,21.40
2019-04-26T09:52:30.133Z,21.70
2019-04-26T09:54:58.643Z,21.70
2019-04-26T09:57:27.277Z,21.60
2019-04-26T09:59:55.834Z,21.60
2019-04-26T10:02:24.314Z,20.90
2019-04-26T10:04:52.913Z,21.50
2019-04-26T10:07:21.506Z,21.90
2019-04-26T10:09:51.813Z,22.30
2019-04-26T10:12:30.961Z,22.00
2019-04-26T10:15:22.612Z,22.60
2019-04-26T10:17:51.965Z,22.10
2019-04-26T10:20:20.541Z,21.80
2019-04-26T10:22:49.115Z,21.80
2019-04-26T10:25:19.020Z,21.70
2019-04-26T10:27:47.681Z,21.80
2019-04-26T10:30:17.495Z,21.80
2019-04-26T10:32:46.468Z,21.80
2019-04-26T10:35:17.500Z,22.10
2019-04-26T10:37:48.070Z,22.10
2019-04-26T10:40:15.864Z,22.30
2019-04-26T10:42:44.520Z,22.40
2019-04-26T10:45:14.530Z,22.70
2019-04-26T10:47:43.709Z,22.60
2019-04-26T10:50:12.872Z,22.70
2019-04-26T10:52:53.156Z,22.60
2019-04-26T10:55:28.062Z,22.90
2019-04-26T10:57:58.194Z,22.50
2019-04-26T11:00:43.870Z,22.70
2019-04-26T11:03:13.771Z,22.90
2019-04-26T11:05:42.386Z,23.20
2019-04-26T11:08:10.969Z,23.50
2019-04-26T11:10:48.395Z,23.00
2019-04-26T11:13:12.737Z,23.10
2019-04-26T11:15:41.384Z,22.90
2019-04-26T11:18:09.929Z,22.70
2019-04-26T11:20:41.382Z,22.40
2019-04-26T11:23:11.740Z,22.20
2019-04-26T11:25:39.005Z,22.30
2019-04-26T11:28:07.693Z,22.20
2019-04-26T11:30:36.769Z,22.30
2019-04-26T11:33:07.298Z,22.00
2019-04-26T11:35:35.694Z,22.30
2019-04-26T11:38:04.403Z,22.30
2019-04-26T11:40:32.932Z,22.00
2019-04-26T11:43:01.570Z,22.00
2019-04-26T11:45:30.209Z,22.30
2019-04-26T11:47:59.215Z,22.60
2019-04-26T11:50:27.766Z,22.70
2019-04-26T11:52:56.370Z,22.90
2019-04-26T11:55:25.222Z,23.00
2019-04-26T11:57:55.137Z,22.50
2019-04-26T12:00:27.526Z,22.70
2019-04-26T12:02:55.648Z,23.10
2019-04-26T12:05:42.251Z,23.30
2019-04-26T12:08:30.489Z,22.60
2019-04-26T12:10:59.166Z,22.90
2019-04-26T12:13:27.748Z,23.30
2019-04-26T12:15:56.434Z,22.80
2019-04-26T12:18:25.281Z,22.70
2019-04-26T12:20:57.103Z,22.80
2019-04-26T12:23:24.177Z,22.80
2019-04-26T12:25:52.726Z,22.90
2019-04-26T12:28:21.302Z,23.20
2019-04-26T12:30:49.921Z,23.10
2019-04-26T12:33:18.524Z,22.90
2019-04-26T12:35:47.090Z,23.00
2019-04-26T12:38:15.688Z,22.90
2019-04-26T12:40:46.175Z,23.00
2019-04-26T12:43:15.786Z,23.20
2019-04-26T12:45:55.256Z,23.50
2019-04-26T12:48:25.564Z,23.50
2019-04-26T12:50:54.263Z,23.50
2019-04-26T12:53:26.687Z,23.50
2019-04-26T12:55:57.891Z,23.80
2019-04-26T12:58:23.634Z,23.90
2019-04-26T13:00:54.193Z,23.80
2019-04-26T13:03:25.058Z,24.10
2019-04-26T13:05:57.678Z,24.40
2019-04-26T13:08:23.051Z,23.90
2019-04-26T13:11:14.872Z,23.90
2019-04-26T13:13:59.719Z,23.60
2019-04-26T13:16:29.946Z,23.30
2019-04-26T13:18:58.651Z,23.20
2019-04-26T13:21:27.246Z,23.10
2019-04-26T13:23:55.804Z,23.00
2019-04-26T13:26:24.432Z,23.30
2019-04-26T13:28:57.253Z,23.60
2019-04-26T13:31:23.251Z,23.70
2019-04-26T13:33:51.854Z,23.50
2019-04-26T13:36:20.550Z,23.30
2019-04-26T13:38:49.041Z,23.10
2019-04-26T13:41:17.621Z,22.80
2019-04-26T13:43:46.194Z,22.60
2019-04-26T13:46:23.367Z,22.80
2019-04-26T13:48:56.192Z,22.70
2019-04-26T13:51:32.626Z,22.70
2019-04-26T13:54:01.226Z,22.70
2019-04-26T13:56:32.082Z,22.60
2019-04-26T13:59:00.189Z,22.70
2019-04-26T14:01:28.942Z,22.70
2019-04-26T14:03:57.625Z,22.70
2019-04-26T14:06:26.159Z,22.80
2019-04-26T14:08:58.203Z,22.70
2019-04-26T14:11:27.985Z,22.80
2019-04-26T14:13:59.466Z,22.80
2019-04-26T14:16:27.538Z,22.80
2019-04-26T14:18:55.867Z,23.00
2019-04-26T14:21:25.351Z,23.10
2019-04-26T14:24:11.560Z,23.40
2019-04-26T14:26:41.756Z,23.70
2019-04-26T14:29:10.322Z,24.00
2019-04-26T14:31:38.971Z,23.50
2019-04-26T14:34:07.620Z,23.50
2019-04-26T14:36:36.166Z,24.00
2019-04-26T14:39:10.690Z,24.20
2019-04-26T14:41:38.429Z,24.30
2019-04-26T14:44:22.077Z,24.00
2019-04-26T14:46:48.199Z,24.20
2019-04-26T14:49:07.786Z,23.80
2019-04-26T14:51:36.334Z,23.40
2019-04-26T14:54:07.424Z,23.50
2019-04-26T14:56:35.366Z,23.30
2019-04-26T14:59:08.173Z,23.30
2019-04-26T15:01:36.704Z,23.10
2019-04-26T15:04:28.129Z,22.90
2019-04-26T15:06:58.234Z,22.70
2019-04-26T15:09:32.933Z,22.70
2019-04-26T15:12:00.910Z,22.70
2019-04-26T15:14:26.681Z,22.60
2019-04-26T15:16:55.233Z,22.60
2019-04-26T15:19:25.892Z,22.20
2019-04-26T15:21:55.386Z,21.90
2019-04-26T15:24:25.896Z,21.70
2019-04-26T15:26:54.645Z,21.80
2019-04-26T15:29:26.899Z,21.70
2019-04-26T15:31:57.241Z,21.60
2019-04-26T15:34:26.901Z,21.50
2019-04-26T15:36:55.594Z,21.40
2019-04-26T15:39:25.942Z,21.40
2019-04-26T15:41:58.827Z,21.30
2019-04-26T15:44:37.921Z,21.30
2019-04-26T15:50:03.936Z,21.10
2019-04-26T15:52:34.013Z,21.10
2019-04-26T15:55:05.968Z,21.00
2019-04-26T15:57:34.685Z,21.10
2019-04-26T16:00:06.946Z,21.10
2019-04-26T16:02:35.510Z,21.00
2019-04-26T16:05:05.871Z,21.00
2019-04-26T16:07:34.639Z,21.10
2019-04-26T16:10:04.378Z,21.00
2019-04-26T16:12:33.015Z,21.00
2019-04-26T16:15:02.444Z,20.90
2019-04-26T16:17:31.235Z,20.90
2019-04-26T16:20:01.747Z,20.80
2019-04-26T16:22:31.655Z,20.80
2019-04-26T16:25:04.031Z,20.80
2019-04-26T16:27:34.149Z,20.70
2019-04-26T16:30:03.097Z,20.80
2019-04-26T16:32:34.604Z,20.70
2019-04-26T16:35:03.691Z,20.70
2019-04-26T16:37:33.128Z,20.70
2019-04-26T16:40:02.556Z,20.70
2019-04-26T16:42:31.184Z,20.60
2019-04-26T16:45:04.022Z,20.60
2019-04-26T16:47:35.335Z,20.60
2019-04-26T16:50:02.028Z,20.60
2019-04-26T16:52:33.698Z,20.60
2019-04-26T16:55:02.863Z,20.60
2019-04-26T16:57:33.535Z,20.60
2019-04-26T17:00:04.965Z,20.60
2019-04-26T17:02:36.826Z,20.50
2019-04-26T17:05:04.476Z,20.50
2019-04-26T17:07:32.846Z,20.50
2019-04-26T17:10:03.137Z,20.50
2019-04-26T17:12:33.141Z,20.40
2019-04-26T17:15:03.413Z,20.40
2019-04-26T17:17:33.128Z,20.40
2019-04-26T17:20:02.596Z,20.40
2019-04-26T17:22:44.510Z,20.40
2019-04-26T17:25:28.541Z,20.30
2019-04-26T17:27:57.084Z,20.30
2019-04-26T17:30:26.354Z,20.20
2019-04-26T17:32:55.392Z,20.20
2019-04-26T17:35:25.421Z,20.10
2019-04-26T17:37:57.344Z,20.00
2019-04-26T17:40:25.441Z,20.00
2019-04-26T17:42:55.068Z,20.00
2019-04-26T17:45:23.633Z,20.00
2019-04-26T17:47:53.020Z,19.90
2019-04-26T17:50:21.774Z,19.80
2019-04-26T17:52:52.166Z,19.90
2019-04-26T17:55:21.086Z,19.90
2019-04-26T17:57:50.686Z,19.90
2019-04-26T18:00:27.483Z,19.80
2019-04-26T18:02:52.354Z,19.90
2019-04-26T18:05:24.438Z,19.90
2019-04-26T18:07:58.468Z,19.90
2019-04-26T18:10:21.883Z,19.90
2019-04-26T18:12:50.864Z,19.80
2019-04-26T18:15:19.676Z,19.70
2019-04-26T18:17:53.100Z,19.70
2019-04-26T18:20:41.422Z,19.70
2019-04-26T18:23:15.370Z,19.70
2019-04-26T18:25:45.152Z,19.70
2019-04-26T18:28:16.077Z,19.60
2019-04-26T18:30:47.580Z,19.60
2019-04-26T18:33:17.576Z,19.50
2019-04-26T18:35:49.126Z,19.40
2019-04-26T18:38:16.452Z,19.30
2019-04-26T18:40:59.868Z,19.20
2019-04-26T18:43:18.888Z,19.20
2019-04-26T18:45:48.247Z,19.10
2019-04-26T18:48:16.976Z,19.10
2019-04-26T18:50:46.087Z,19.10
2019-04-26T18:53:19.557Z,19.10
2019-04-26T18:55:53.447Z,19.10
2019-04-26T18:58:23.613Z,19.00
2019-04-26T19:00:53.133Z,19.00
2019-04-26T19:03:26.188Z,19.00
2019-04-26T19:06:02.545Z,19.00
2019-04-26T19:08:45.026Z,18.90
2019-04-26T19:11:07.228Z,18.90
2019-04-26T19:13:38.346Z,18.80
2019-04-26T19:16:27.220Z,18.70
2019-04-26T19:19:00.415Z,18.60
2019-04-26T19:21:40.580Z,18.50
2019-04-26T19:24:19.578Z,18.50
2019-04-26T19:26:44.123Z,18.50
2019-04-26T19:29:18.112Z,18.60
2019-04-26T19:31:44.077Z,18.60
2019-04-26T19:34:13.042Z,18.50
2019-04-26T19:36:42.057Z,18.40
2019-04-26T19:39:12.051Z,18.30
2019-04-26T19:41:52.029Z,18.30
2019-04-26T19:44:24.496Z,18.10
2019-04-26T19:47:06.687Z,18.20
2019-04-26T19:49:53.716Z,18.10
2019-04-26T19:52:25.444Z,18.00
2019-04-26T19:55:11.406Z,18.10
2019-04-26T19:57:42.672Z,18.00
2019-04-26T20:00:12.476Z,18.10
2019-04-26T20:02:42.015Z,18.00
2019-04-26T20:05:13.883Z,18.00
2019-04-26T20:07:42.519Z,17.90
2019-04-26T20:10:12.878Z,17.90
2019-04-26T20:12:41.547Z,18.00
2019-04-26T20:15:24.945Z,17.80
2019-04-26T20:17:45.172Z,17.70
2019-04-26T20:20:20.940Z,17.70
2019-04-26T20:22:44.197Z,17.70
2019-04-26T20:25:12.920Z,17.70
2019-04-26T20:27:41.496Z,17.70
2019-04-26T20:30:12.596Z,17.70
2019-04-26T20:32:44.642Z,17.70
2019-04-26T20:35:19.870Z,17.60
2019-04-26T20:37:48.599Z,17.60
2019-04-26T20:40:22.252Z,17.40
2019-04-26T20:42:47.658Z,17.30
2019-04-26T20:45:18.175Z,17.30
2019-04-26T20:47:51.338Z,17.30
2019-04-26T20:50:17.047Z,17.30
2019-04-26T20:52:46.326Z,17.30
2019-04-26T20:55:15.013Z,17.20
2019-04-26T20:57:44.771Z,17.00
2019-04-26T21:00:14.389Z,17.00
2019-04-26T21:02:43.037Z,17.00
2019-04-26T21:05:14.712Z,16.90
2019-04-26T21:07:49.449Z,16.80
2019-04-26T21:10:21.105Z,16.70
2019-04-26T21:12:47.550Z,16.60
2019-04-26T21:15:15.742Z,16.60
2019-04-26T21:17:45.552Z,16.50
2019-04-26T21:20:14.287Z,16.50
2019-04-26T21:22:42.932Z,16.30
2019-04-26T21:25:13.322Z,16.30
2019-04-26T21:27:49.057Z,16.30
2019-04-26T21:30:25.469Z,16.30
2019-04-26T21:33:04.678Z,16.10
2019-04-26T21:35:34.979Z,16.00
2019-04-26T21:38:12.675Z,15.90
2019-04-26T21:40:45.549Z,15.90
2019-04-26T21:43:14.174Z,15.80
2019-04-26T21:45:44.025Z,15.70
2019-04-26T21:48:13.816Z,15.60
2019-04-26T21:50:44.423Z,15.60
2019-04-26T21:53:13.386Z,15.50
2019-04-26T21:55:43.482Z,15.40
2019-04-26T21:58:14.031Z,15.40
2019-04-26T22:00:50.731Z,15.30
2019-04-26T22:03:19.426Z,15.20
2019-04-26T22:05:49.827Z,15.10
2019-04-26T22:08:24.545Z,15.00
2019-04-26T22:10:50.933Z,14.90
2019-04-26T22:13:21.094Z,14.80
2019-04-26T22:15:57.162Z,14.70
2019-04-26T22:18:27.432Z,14.60
2019-04-26T22:20:57.697Z,14.50
2019-04-26T22:23:27.982Z,14.50
2019-04-26T22:26:00.094Z,14.40
2019-04-26T22:28:31.209Z,14.30
2019-04-26T22:30:59.377Z,14.30
2019-04-26T22:33:30.913Z,14.10
2019-04-26T22:35:59.361Z,14.10
2019-04-26T22:38:28.354Z,13.90
2019-04-26T22:40:57.167Z,13.90
2019-04-26T22:43:49.494Z,13.80
2019-04-26T22:46:28.225Z,13.70
2019-04-26T22:48:54.948Z,13.70
2019-04-26T22:51:23.168Z,13.50
2019-04-26T22:53:53.436Z,13.50
2019-04-26T22:56:23.239Z,13.40
2019-04-26T22:58:51.893Z,13.40
2019-04-26T23:01:20.603Z,13.30
2019-04-26T23:03:49.266Z,13.20
2019-04-26T23:06:18.224Z,13.30
2019-04-26T23:08:46.828Z,13.20
2019-04-26T23:11:15.424Z,13.10
2019-04-26T23:13:55.773Z,13.10
2019-04-26T23:16:26.086Z,13.00
2019-04-26T23:18:56.379Z,12.90
2019-04-26T23:21:29.181Z,12.80
2019-04-26T23:23:57.896Z,12.80
2019-04-26T23:26:26.455Z,12.70
2019-04-26T23:28:55.044Z,12.60
2019-04-26T23:31:23.805Z,12.60
2019-04-26T23:33:53.874Z,12.50
2019-04-26T23:36:24.061Z,12.40
2019-04-26T23:38:53.121Z,12.40
2019-04-26T23:41:23.626Z,12.30
2019-04-26T23:43:56.859Z,12.20
2019-04-26T23:46:25.710Z,12.10
2019-04-26T23:48:53.869Z,12.00
2019-04-26T23:51:23.817Z,12.00
2019-04-26T23:53:54.949Z,11.90
2019-04-26T23:56:25.290Z,11.90
2019-04-26T23:58:53.403Z,11.80
